Time;durP1;ratioP1;P1;durP2;ratioP2;P2;SDS_P1;SDS_P2;PMS_P1;PMS_P2;Temp;Humidity;BMP_temperature;BMP_pressure;BME280_temperature;BME280_humidity;BME280_pressure;Samples;Min_cycle;Max_cycle;Signal;HPM_P1;HPM_P2
2021/10/28 00:13:00;;;;;;;9.30;8.40;;;7.70;99.90;;;;;;6249722;28;20483;-67
2021/10/28 00:16:12;;;;;;;9.90;8.87;;;7.70;99.90;;;;;;6249581;28;20978;-67
2021/10/28 00:19:16;;;;;;;11.63;8.43;;;7.70;99.90;;;;;;6250060;28;21067;-67
2021/10/28 00:22:22;;;;;;;11.40;9.70;;;7.60;99.90;;;;;;6250158;28;20474;-68
2021/10/28 00:25:25;;;;;;;11.60;9.60;;;7.50;99.90;;;;;;6250365;28;20485;-67
2021/10/28 00:28:29;;;;;;;9.60;8.70;;;7.60;99.90;;;;;;6250148;28;20471;-67
2021/10/28 00:31:35;;;;;;;11.10;9.40;;;7.50;99.90;;;;;;6249781;28;20475;-67
2021/10/28 00:34:39;;;;;;;10.23;9.30;;;7.50;99.90;;;;;;6249682;28;20483;-67
2021/10/28 00:37:42;;;;;;;10.73;9.57;;;7.50;99.90;;;;;;6249865;28;20467;-68
2021/10/28 00:40:46;;;;;;;15.33;9.77;;;7.50;99.90;;;;;;6250498;28;20490;-67
2021/10/28 00:43:51;;;;;;;13.20;9.00;;;7.40;99.90;;;;;;6251385;28;20669;-67
2021/10/28 00:46:56;;;;;;;9.77;8.87;;;7.40;99.90;;;;;;6250745;28;20451;-67
2021/10/28 00:49:59;;;;;;;13.80;10.97;;;7.40;99.90;;;;;;6252034;28;20463;-67
2021/10/28 00:53:03;;;;;;;12.40;10.77;;;7.40;99.90;;;;;;6249945;28;20458;-67
2021/10/28 00:56:07;;;;;;;11.23;9.80;;;7.30;99.90;;;;;;6249992;28;20504;-67
2021/10/28 00:59:11;;;;;;;12.67;10.00;;;7.30;99.90;;;;;;6250755;28;20462;-67
2021/10/28 01:02:16;;;;;;;11.53;10.33;;;7.30;99.90;;;;;;6254825;28;20466;-67
2021/10/28 01:05:19;;;;;;;9.53;8.20;;;7.30;99.90;;;;;;6254771;28;20470;-67
2021/10/28 01:08:23;;;;;;;13.00;11.13;;;7.30;99.90;;;;;;6253794;28;20546;-67
2021/10/28 01:11:27;;;;;;;10.77;9.60;;;7.30;99.90;;;;;;6254178;28;20471;-68
2021/10/28 01:14:41;;;;;;;9.43;8.37;;;7.20;99.90;;;;;;6253715;28;20794;-68
2021/10/28 01:17:45;;;;;;;9.70;8.70;;;7.20;99.90;;;;;;6253604;28;20463;-68
2021/10/28 01:20:53;;;;;;;11.43;9.73;;;7.20;99.90;;;;;;6255102;28;20529;-68
2021/10/28 01:23:57;;;;;;;11.40;8.93;;;7.20;99.90;;;;;;6255478;28;20470;-68
2021/10/28 01:27:05;;;;;;;9.40;8.27;;;7.20;99.90;;;;;;6255443;28;20807;-68
2021/10/28 01:30:08;;;;;;;9.97;8.90;;;7.20;99.90;;;;;;6254994;28;20486;-68
2021/10/28 01:33:12;;;;;;;11.43;10.23;;;7.10;99.90;;;;;;6254950;28;20470;-68
2021/10/28 01:36:17;;;;;;;12.93;10.87;;;7.10;99.90;;;;;;6253642;28;20470;-68
2021/10/28 01:39:22;;;;;;;11.87;10.77;;;7.10;99.90;;;;;;6253437;28;20606;-67
2021/10/28 01:42:25;;;;;;;12.93;11.60;;;7.00;99.90;;;;;;6253528;28;20466;-67
2021/10/28 01:45:29;;;;;;;14.20;12.87;;;7.00;99.90;;;;;;6253496;28;20933;-67
2021/10/28 01:48:32;;;;;;;11.97;10.80;;;7.00;99.90;;;;;;6253451;28;20479;-67
2021/10/28 01:51:37;;;;;;;11.90;10.60;;;7.00;99.90;;;;;;6252937;28;20489;-67
2021/10/28 01:54:40;;;;;;;10.80;9.43;;;7.00;99.90;;;;;;6244186;28;20977;-68
2021/10/28 01:57:43;;;;;;;10.77;9.20;;;7.00;99.90;;;;;;6252937;28;20815;-67
2021/10/28 02:00:46;;;;;;;11.37;9.57;;;6.90;99.90;;;;;;6252718;28;20483;-67
2021/10/28 02:03:50;;;;;;;9.90;8.90;;;6.90;99.90;;;;;;6253290;28;20527;-67
2021/10/28 02:06:54;;;;;;;10.73;9.40;;;6.90;99.90;;;;;;6252778;28;20479;-67
2021/10/28 02:09:57;;;;;;;8.90;8.10;;;6.90;99.90;;;;;;6252344;28;20471;-67
2021/10/28 02:13:01;;;;;;;9.67;8.57;;;6.90;99.90;;;;;;6252375;28;20521;-67
2021/10/28 02:16:06;;;;;;;10.00;8.67;;;6.90;99.90;;;;;;6252340;28;20514;-67
2021/10/28 02:19:09;;;;;;;9.33;8.43;;;6.90;99.90;;;;;;6252466;28;20471;-67
2021/10/28 02:22:13;;;;;;;9.30;8.50;;;6.90;99.90;;;;;;6252319;28;20471;-67
2021/10/28 02:25:18;;;;;;;9.90;8.90;;;6.90;99.90;;;;;;6252459;28;20471;-67
2021/10/28 02:28:21;;;;;;;9.07;8.17;;;6.90;99.90;;;;;;6252019;28;20475;-66
2021/10/28 02:31:24;;;;;;;15.40;10.10;;;6.80;99.90;;;;;;6252012;28;20892;-66
2021/10/28 02:34:28;;;;;;;10.10;9.10;;;6.80;99.90;;;;;;6251942;28;20467;-67
2021/10/28 02:37:32;;;;;;;9.83;8.80;;;6.80;99.90;;;;;;6251997;28;20481;-67
2021/10/28 02:40:36;;;;;;;8.30;7.60;;;6.80;99.90;;;;;;6252031;28;20537;-65
2021/10/28 02:43:40;;;;;;;9.93;8.93;;;6.80;99.90;;;;;;6251768;28;20481;-66
2021/10/28 02:46:43;;;;;;;9.93;8.93;;;6.80;99.90;;;;;;6251581;28;20826;-66
2021/10/28 02:49:47;;;;;;;12.17;10.13;;;6.80;99.90;;;;;;6252132;28;20498;-68
2021/10/28 02:52:51;;;;;;;9.73;8.93;;;6.80;99.90;;;;;;6252515;28;20474;-66
2021/10/28 02:55:54;;;;;;;9.97;9.07;;;6.70;99.90;;;;;;6251667;28;20478;-66
2021/10/28 02:58:57;;;;;;;11.83;9.53;;;6.70;99.90;;;;;;6252858;28;20485;-67
2021/10/28 03:02:01;;;;;;;10.20;9.20;;;6.70;99.90;;;;;;6251845;28;20450;-65
2021/10/28 03:05:05;;;;;;;11.70;9.53;;;6.70;99.90;;;;;;6251464;28;20436;-67
2021/10/28 03:08:10;;;;;;;11.33;9.53;;;6.70;99.90;;;;;;6251349;28;20742;-66
2021/10/28 03:11:13;;;;;;;10.43;9.50;;;6.80;99.90;;;;;;6251438;28;20939;-68
2021/10/28 03:14:20;;;;;;;8.83;7.93;;;6.70;99.90;;;;;;6251143;28;20560;-67
2021/10/28 03:17:30;;;;;;;9.60;8.67;;;6.70;99.90;;;;;;6252444;28;20479;-68
2021/10/28 03:27:15;;;;;;;9.47;8.53;;;6.60;99.90;;;;;;6251195;28;20471;-65
2021/10/28 03:30:19;;;;;;;10.23;8.83;;;6.50;99.90;;;;;;6251346;28;20794;-67
2021/10/28 03:33:23;;;;;;;11.00;9.90;;;6.60;99.90;;;;;;6250947;28;20806;-67
2021/10/28 03:36:39;;;;;;;10.83;9.73;;;6.50;99.90;;;;;;6250896;28;20966;-65
2021/10/28 03:40:03;;;;;;;10.17;8.73;;;6.50;99.90;;;;;;6251057;28;20475;-67
2021/10/28 03:43:28;;;;;;;12.93;9.37;;;6.40;99.90;;;;;;6251764;28;20475;-71
2021/10/28 04:20:45;;;;;;;10.00;9.10;;;6.20;99.90;;;;;;6239838;28;20795;-68
2021/10/28 04:30:28;;;;;;;11.80;10.07;;;6.30;99.90;;;;;;6250058;28;20483;-65
2021/10/28 04:33:31;;;;;;;11.20;9.83;;;6.20;99.90;;;;;;6249758;28;20471;-67
2021/10/28 04:36:34;;;;;;;12.57;11.20;;;6.20;99.90;;;;;;6254480;28;20505;-67
2021/10/28 04:39:38;;;;;;;12.33;11.07;;;6.00;99.90;;;;;;6254634;28;20847;-68
2021/10/28 04:42:41;;;;;;;15.40;11.60;;;5.90;99.90;;;;;;6254771;28;20474;-67
2021/10/28 04:45:46;;;;;;;14.10;12.00;;;5.90;99.90;;;;;;6254369;28;20467;-67
2021/10/28 04:48:49;;;;;;;12.40;11.20;;;5.80;99.90;;;;;;6254375;28;20489;-66
2021/10/28 04:51:53;;;;;;;12.87;11.53;;;5.80;99.90;;;;;;6254350;28;20938;-67
2021/10/28 04:54:56;;;;;;;15.70;11.77;;;5.80;99.90;;;;;;6254537;28;20475;-67
2021/10/28 04:57:59;;;;;;;12.50;11.30;;;5.70;99.90;;;;;;6254314;28;20467;-67
2021/10/28 05:01:04;;;;;;;13.47;11.40;;;5.60;99.90;;;;;;6254665;28;20966;-67
2021/10/28 05:04:08;;;;;;;16.87;12.27;;;5.60;99.90;;;;;;6254106;28;20550;-67
2021/10/28 05:07:11;;;;;;;15.27;13.60;;;5.50;99.90;;;;;;6249268;28;20957;-68
2021/10/28 05:10:14;;;;;;;18.23;13.47;;;5.40;99.90;;;;;;6253986;28;20791;-69
2021/10/28 05:13:17;;;;;;;15.60;12.20;;;5.40;99.90;;;;;;6254629;28;20977;-69
2021/10/28 05:16:22;;;;;;;14.07;12.67;;;5.30;99.90;;;;;;6253567;28;20862;-67
2021/10/28 05:19:26;;;;;;;14.10;11.60;;;5.30;99.90;;;;;;6254241;28;20595;-68
2021/10/28 05:22:29;;;;;;;14.30;12.30;;;5.30;99.90;;;;;;6254179;28;20486;-68
2021/10/28 05:25:32;;;;;;;15.03;13.17;;;5.30;99.90;;;;;;6253810;28;20971;-68
2021/10/28 05:28:36;;;;;;;19.07;13.17;;;5.30;99.90;;;;;;6253566;28;20471;-68
2021/10/28 05:31:41;;;;;;;14.33;12.93;;;5.30;99.90;;;;;;6253628;28;20792;-68
2021/10/28 05:34:47;;;;;;;16.57;13.80;;;5.30;99.90;;;;;;6253591;28;20482;-68
2021/10/28 05:37:51;;;;;;;13.77;12.23;;;5.30;99.90;;;;;;6253350;28;20815;-68
2021/10/28 05:40:54;;;;;;;16.57;12.30;;;5.30;99.90;;;;;;6252908;28;20967;-69
2021/10/28 05:43:57;;;;;;;15.73;13.07;;;5.20;99.90;;;;;;6255715;28;20470;-68
2021/10/28 05:47:02;;;;;;;14.97;12.93;;;5.30;99.90;;;;;;6255779;28;20444;-68
2021/10/28 05:50:09;;;;;;;14.03;12.40;;;5.30;99.90;;;;;;6254769;28;20955;-68
2021/10/28 05:53:13;;;;;;;14.20;12.83;;;5.30;99.90;;;;;;6255394;28;20427;-68
2021/10/28 05:56:16;;;;;;;14.83;13.23;;;5.40;99.90;;;;;;6254117;28;20947;-68
2021/10/28 05:59:19;;;;;;;17.20;12.90;;;5.40;99.90;;;;;;6253853;28;20481;-68
2021/10/28 06:02:24;;;;;;;15.43;11.87;;;5.50;99.90;;;;;;6253856;28;20471;-69
2021/10/28 06:05:27;;;;;;;14.40;12.67;;;5.60;99.90;;;;;;6254106;28;20820;-69
2021/10/28 06:08:30;;;;;;;17.33;12.57;;;5.80;99.90;;;;;;6253667;28;20487;-68
2021/10/28 06:11:33;;;;;;;13.27;11.90;;;5.90;99.90;;;;;;6239610;28;20471;-68
2021/10/28 06:14:37;;;;;;;12.50;10.90;;;6.00;99.90;;;;;;6253184;28;20541;-68
2021/10/28 06:17:48;;;;;;;12.20;10.90;;;6.20;99.90;;;;;;6252791;28;20962;-69
2021/10/28 06:20:53;;;;;;;15.83;11.80;;;6.30;99.90;;;;;;6253083;28;20479;-68
2021/10/28 06:23:58;;;;;;;11.90;10.70;;;6.40;99.90;;;;;;6252635;28;20467;-66
2021/10/28 06:27:01;;;;;;;12.87;10.17;;;6.50;99.90;;;;;;6252346;28;20803;-68
2021/10/28 06:30:05;;;;;;;12.70;11.40;;;6.60;99.90;;;;;;6252049;28;20490;-66
2021/10/28 06:33:12;;;;;;;15.73;11.70;;;6.70;99.90;;;;;;6251880;28;20481;-66
2021/10/28 06:36:18;;;;;;;13.03;11.00;;;6.80;99.90;;;;;;6251865;28;20955;-68
2021/10/28 06:39:21;;;;;;;13.13;11.70;;;6.90;99.90;;;;;;6252039;28;20483;-66
2021/10/28 06:42:25;;;;;;;13.07;10.80;;;7.00;99.90;;;;;;6251431;28;20849;-67
2021/10/28 06:45:28;;;;;;;12.27;11.07;;;7.10;99.90;;;;;;6252232;28;20482;-67
2021/10/28 06:48:32;;;;;;;15.13;10.97;;;7.20;99.90;;;;;;6251381;28;20783;-67
2021/10/28 06:51:38;;;;;;;12.40;10.53;;;7.30;99.90;;;;;;6251421;28;20467;-67
2021/10/28 06:54:43;;;;;;;12.90;10.20;;;7.40;99.90;;;;;;6251750;28;20955;-68
2021/10/28 07:02:12;;;;;;;18.03;11.60;;;7.50;99.90;;;;;;6250102;28;20479;-68
2021/10/28 07:04:59;;;;;;;13.13;10.73;;;7.80;99.90;;;;;;6159902;28;20482;-67
2021/10/28 07:08:02;;;;;;;14.03;10.43;;;7.90;99.90;;;;;;6155049;28;20462;-67
2021/10/28 07:11:09;;;;;;;16.30;12.90;;;8.00;99.90;;;;;;6223865;28;20455;-68
2021/10/28 07:14:12;;;;;;;12.60;10.70;;;8.10;99.90;;;;;;6226629;28;20517;-68
2021/10/28 07:17:26;;;;;;;12.60;11.30;;;8.20;99.90;;;;;;6226076;28;20979;-66
2021/10/28 07:30:59;;;;;;;17.90;13.73;;;8.40;99.90;;;;;;6215977;28;20472;-67
2021/10/28 07:34:11;;;;;;;22.13;16.60;;;8.50;99.90;;;;;;6226297;28;20480;-68
2021/10/28 07:57:46;;;;;;;15.03;13.47;;;9.20;99.90;;;;;;6249986;28;20969;-66
2021/10/28 08:18:00;;;;;;;15.83;12.80;;;10.00;99.90;;;;;;6212803;28;20476;-66
2021/10/28 08:21:25;;;;;;;16.60;13.13;;;10.30;99.90;;;;;;6226207;28;20476;-67
2021/10/28 08:31:17;;;;;;;17.67;14.30;;;10.90;98.80;;;;;;6227729;28;20994;-66
2021/10/28 08:34:26;;;;;;;23.20;14.10;;;11.20;98.40;;;;;;6226181;28;20510;-67
2021/10/28 08:37:35;;;;;;;21.33;15.13;;;11.50;97.60;;;;;;6237517;28;20485;-68
2021/10/28 08:40:38;;;;;;;18.50;13.60;;;11.80;97.10;;;;;;6250343;28;20479;-67
2021/10/28 08:43:44;;;;;;;19.00;15.03;;;12.30;96.90;;;;;;6246436;28;20468;-67
2021/10/28 08:46:49;;;;;;;15.67;14.07;;;13.60;96.20;;;;;;6224797;28;20475;-67
2021/10/28 08:49:56;;;;;;;15.77;14.07;;;16.30;93.00;;;;;;6225389;28;20484;-67
2021/10/28 08:56:43;;;;;;;19.97;13.10;;;23.20;60.80;;;;;;6201360;28;20557;-69
2021/10/28 09:23:57;;;;;;;15.37;13.00;;;22.50;44.30;;;;;;6229239;28;20225;-67
2021/10/28 09:27:05;;;;;;;16.57;14.70;;;23.20;45.10;;;;;;6228955;28;20247;-67
2021/10/28 09:30:11;;;;;;;14.27;12.97;;;26.40;40.80;;;;;;6229023;28;20251;-66
2021/10/28 09:33:23;;;;;;;19.50;13.90;;;29.10;36.20;;;;;;6229182;28;20235;-67
2021/10/28 09:46:43;;;;;;;13.32;12.25;;;36.40;26.50;;;;;;6228513;28;20255;-67
2021/10/28 09:50:08;;;;;;;13.38;12.27;;;37.10;25.20;;;;;;6228516;28;20695;-66
2021/10/28 09:53:15;;;;;;;14.50;13.35;;;38.20;24.30;;;;;;6228681;28;20208;-67
2021/10/28 09:59:58;;;;;;;12.35;11.35;;;39.20;22.60;;;;;;6227912;28;20232;-67
2021/10/28 10:03:08;;;;;;;13.07;11.95;;;39.80;22.50;;;;;;6228504;28;20238;-67
2021/10/28 10:06:25;;;;;;;12.40;11.50;;;39.80;22.10;;;;;;6228501;28;20286;-68
2021/10/28 10:09:29;;;;;;;14.73;13.60;;;39.90;22.00;;;;;;6228494;28;20240;-67
2021/10/28 10:12:33;;;;;;;14.90;13.70;;;39.50;21.70;;;;;;6227893;28;20244;-68
2021/10/28 10:15:37;;;;;;;13.80;12.82;;;38.80;22.10;;;;;;6228380;28;20668;-66
2021/10/28 10:18:41;;;;;;;12.82;11.85;;;39.20;21.80;;;;;;6236263;28;20224;-67
2021/10/28 10:21:51;;;;;;;13.68;12.57;;;39.10;21.80;;;;;;6247706;28;20315;-66
2021/10/28 10:25:10;;;;;;;13.57;12.48;;;39.90;21.50;;;;;;6235903;28;20235;-67
2021/10/28 12:46:25;;;;;;;13.02;12.02;;;40.00;20.10;;;;;;6274269;28;20238;-68
2021/10/28 13:54:18;;;;;;;16.43;14.80;;;26.70;31.40;;;;;;6277276;28;20242;-69
2021/10/28 13:57:35;;;;;;;16.90;15.27;;;25.30;33.70;;;;;;6277046;28;20231;-66
2021/10/28 15:34:52;;;;;;;17.93;15.73;;;14.80;59.50;;;;;;6276319;28;20796;-69
2021/10/28 15:38:02;;;;;;;15.93;14.23;;;14.70;60.00;;;;;;6262050;28;20497;-71
2021/10/28 15:41:22;;;;;;;17.47;15.67;;;14.50;60.20;;;;;;6274750;28;20925;-70
2021/10/28 15:57:58;;;;;;;18.50;16.50;;;14.00;62.90;;;;;;6248384;28;20467;-69
2021/10/28 16:24:33;;;;;;;21.50;17.27;;;13.30;71.10;;;;;;6275904;28;20473;-67
2021/10/28 16:27:38;;;;;;;21.87;19.67;;;13.20;72.20;;;;;;6274743;28;20473;-68
2021/10/28 16:30:41;;;;;;;21.47;19.17;;;13.20;72.70;;;;;;6277631;28;20466;-68
2021/10/28 16:33:46;;;;;;;21.53;19.43;;;13.20;72.80;;;;;;6279499;28;20469;-70
2021/10/28 16:36:49;;;;;;;21.43;18.93;;;13.20;73.30;;;;;;6263802;28;20482;-67
2021/10/28 16:39:53;;;;;;;20.93;19.10;;;13.10;73.50;;;;;;6279009;28;20488;-67
2021/10/28 16:42:56;;;;;;;20.47;18.37;;;13.10;74.10;;;;;;6279371;28;20480;-69
2021/10/28 16:45:59;;;;;;;17.63;15.73;;;13.00;74.30;;;;;;6261263;28;20490;-69
2021/10/28 16:49:04;;;;;;;21.17;18.23;;;13.00;75.00;;;;;;6245273;28;20482;-69
2021/10/28 16:52:08;;;;;;;22.73;18.17;;;12.90;75.50;;;;;;6252871;28;20479;-69
2021/10/28 16:55:11;;;;;;;19.10;17.10;;;12.90;76.40;;;;;;6252796;28;20486;-69
2021/10/28 16:58:14;;;;;;;29.17;19.27;;;12.80;77.20;;;;;;6252653;28;20478;-68
2021/10/28 17:01:18;;;;;;;20.50;17.77;;;12.80;77.80;;;;;;6252197;28;20479;-69
2021/10/28 17:04:22;;;;;;;20.83;17.97;;;12.60;78.80;;;;;;6253029;28;20482;-69
2021/10/28 17:07:26;;;;;;;20.30;18.40;;;12.60;79.90;;;;;;6254016;28;20963;-69
2021/10/28 17:10:29;;;;;;;20.27;18.17;;;12.50;80.70;;;;;;6254227;28;20478;-69
2021/10/28 17:13:32;;;;;;;20.47;18.23;;;12.50;81.80;;;;;;6253178;28;20509;-69
2021/10/28 17:16:37;;;;;;;24.50;18.07;;;12.40;82.70;;;;;;6267222;28;20481;-69
2021/10/28 17:19:42;;;;;;;20.70;18.50;;;12.30;83.40;;;;;;6277818;28;20865;-68
2021/10/28 17:22:45;;;;;;;22.27;19.97;;;12.20;84.50;;;;;;6277350;28;20466;-68
2021/10/28 17:25:56;;;;;;;24.27;18.67;;;12.20;85.20;;;;;;6277048;28;20504;-68
2021/10/28 17:29:01;;;;;;;19.37;17.60;;;12.00;86.10;;;;;;6279508;28;20601;-68
2021/10/28 17:32:04;;;;;;;20.10;18.00;;;12.00;87.00;;;;;;6277708;28;20446;-69
2021/10/28 17:35:10;;;;;;;20.50;18.30;;;11.90;87.70;;;;;;6278352;28;20438;-69
2021/10/28 17:38:13;;;;;;;20.77;18.70;;;11.90;88.60;;;;;;6276904;28;20449;-68
2021/10/28 17:41:17;;;;;;;22.57;18.97;;;11.80;89.10;;;;;;6275730;28;20522;-69
2021/10/28 17:44:25;;;;;;;20.47;18.27;;;11.70;90.00;;;;;;6276611;28;20535;-69
2021/10/28 17:47:29;;;;;;;20.40;17.23;;;11.60;90.20;;;;;;6276947;28;20834;-68
2021/10/28 17:50:34;;;;;;;20.77;18.83;;;11.60;90.60;;;;;;6273367;28;20466;-69
2021/10/28 17:53:39;;;;;;;21.63;19.53;;;11.60;90.80;;;;;;6278651;28;20502;-70
2021/10/28 17:56:42;;;;;;;19.90;18.00;;;11.40;90.90;;;;;;6278677;28;20466;-70
2021/10/28 17:59:46;;;;;;;21.50;19.20;;;11.40;91.20;;;;;;6277318;28;20488;-70
2021/10/28 18:02:51;;;;;;;21.40;19.40;;;11.30;91.40;;;;;;6277718;28;20524;-69
2021/10/28 18:06:15;;;;;;;20.27;18.30;;;11.20;91.70;;;;;;6277913;28;20946;-69
2021/10/28 18:09:19;;;;;;;20.70;18.67;;;11.20;91.90;;;;;;6277644;28;20961;-69
2021/10/28 18:12:22;;;;;;;20.80;18.80;;;11.20;92.20;;;;;;6258671;28;20811;-69
2021/10/28 18:15:26;;;;;;;21.90;19.67;;;11.10;92.30;;;;;;6252235;28;20489;-68
2021/10/28 18:18:30;;;;;;;23.47;21.07;;;11.00;92.60;;;;;;6252172;28;20558;-68
2021/10/28 18:21:37;;;;;;;22.40;20.10;;;10.90;92.70;;;;;;6252641;28;20477;-69
2021/10/28 18:24:41;;;;;;;23.93;21.43;;;10.80;92.90;;;;;;6252268;28;20471;-69
2021/10/28 18:27:44;;;;;;;24.50;21.60;;;10.80;93.10;;;;;;6252270;28;20524;-69
2021/10/28 18:30:48;;;;;;;23.60;21.17;;;10.80;93.40;;;;;;6252055;28;20486;-66
2021/10/28 18:33:51;;;;;;;24.93;21.87;;;10.70;93.50;;;;;;6252087;28;20546;-68
2021/10/28 18:36:56;;;;;;;25.40;22.37;;;10.60;93.50;;;;;;6255520;28;20470;-68
2021/10/28 18:39:59;;;;;;;27.80;23.53;;;10.50;93.70;;;;;;6263505;28;20482;-68
2021/10/28 18:43:03;;;;;;;25.73;21.73;;;10.50;93.80;;;;;;6269343;28;20895;-67
2021/10/28 18:46:07;;;;;;;22.27;19.93;;;10.40;93.90;;;;;;6251940;28;20479;-69
2021/10/28 18:49:10;;;;;;;27.00;22.10;;;10.30;94.10;;;;;;6270215;28;20827;-68
2021/10/28 18:52:15;;;;;;;24.90;22.60;;;10.30;94.30;;;;;;6276525;28;20470;-69
2021/10/28 18:55:19;;;;;;;23.93;21.57;;;10.20;94.50;;;;;;6275746;28;20466;-70
2021/10/28 18:58:23;;;;;;;25.57;22.80;;;10.10;94.70;;;;;;6238318;28;20474;-69
2021/10/28 19:01:28;;;;;;;28.60;23.93;;;10.10;94.90;;;;;;6250917;28;20486;-68
2021/10/28 19:04:32;;;;;;;26.70;23.93;;;10.00;95.20;;;;;;6251760;28;21009;-69
2021/10/28 19:07:37;;;;;;;26.67;23.33;;;10.00;95.20;;;;;;6251418;28;20482;-68
2021/10/28 19:10:40;;;;;;;25.77;23.10;;;9.90;95.70;;;;;;6251128;28;20550;-68
2021/10/28 19:13:45;;;;;;;26.47;23.50;;;9.90;95.80;;;;;;6261234;28;20485;-70
2021/10/28 19:16:49;;;;;;;25.50;22.90;;;9.80;95.90;;;;;;6276176;28;20822;-70
2021/10/28 19:19:53;;;;;;;26.13;22.77;;;9.70;95.90;;;;;;6276123;28;20501;-69
2021/10/28 19:22:59;;;;;;;26.83;24.03;;;9.80;96.10;;;;;;6275507;28;20691;-69
2021/10/28 19:26:02;;;;;;;24.97;22.37;;;9.70;96.10;;;;;;6275419;28;20471;-69
2021/10/28 19:29:09;;;;;;;27.77;24.37;;;9.70;96.20;;;;;;6275446;28;20477;-69
2021/10/28 19:32:16;;;;;;;26.63;23.73;;;9.70;96.20;;;;;;6276661;28;20414;-69
2021/10/28 19:35:22;;;;;;;27.47;24.70;;;9.60;96.30;;;;;;6275303;28;20759;-69
2021/10/28 19:38:36;;;;;;;26.80;24.10;;;9.60;96.60;;;;;;6277666;28;20474;-68
2021/10/28 19:45:22;;;;;;;28.60;25.50;;;9.50;96.60;;;;;;6262608;28;20477;-70
2021/10/28 19:48:25;;;;;;;28.73;25.73;;;9.40;96.70;;;;;;6260450;28;20490;-69
2021/10/28 19:51:28;;;;;;;26.63;24.10;;;9.30;96.80;;;;;;6250761;28;20463;-68
2021/10/28 19:54:33;;;;;;;26.67;23.97;;;9.30;96.90;;;;;;6251032;28;20462;-67
2021/10/28 19:57:38;;;;;;;28.80;25.63;;;9.30;97.10;;;;;;6251537;28;20471;-66
2021/10/28 20:00:49;;;;;;;31.90;25.17;;;9.30;97.30;;;;;;6249080;28;20490;-67
2021/10/28 20:07:21;;;;;;;29.60;26.40;;;9.10;97.30;;;;;;6233324;28;20590;-67
2021/10/28 20:14:15;;;;;;;31.43;28.13;;;9.10;97.80;;;;;;6250769;28;20478;-65
2021/10/28 20:20:41;;;;;;;31.43;26.07;;;9.00;98.20;;;;;;6250121;28;20475;-66
2021/10/28 20:23:44;;;;;;;30.77;27.07;;;8.90;98.20;;;;;;6250028;28;20473;-66
2021/10/28 20:26:49;;;;;;;32.30;28.40;;;8.90;98.30;;;;;;6250389;28;20970;-66
2021/10/28 20:29:53;;;;;;;32.23;27.97;;;8.90;98.30;;;;;;6250059;28;20471;-66
2021/10/28 20:32:56;;;;;;;30.43;26.90;;;8.80;98.40;;;;;;6249938;28;20485;-66
2021/10/28 20:37:05;;;;;;;33.23;29.73;;;8.80;98.70;;;;;;6249553;28;20490;-67
2021/10/28 20:39:37;;;;;;;32.80;27.30;;;8.70;98.80;;;;;;6253067;28;20474;-67
2021/10/28 20:42:46;;;;;;;29.80;26.70;;;8.70;98.80;;;;;;6274453;28;20482;-66
2021/10/28 20:45:50;;;;;;;31.13;27.80;;;8.70;99.00;;;;;;6294993;28;20478;-66
2021/10/28 20:48:56;;;;;;;32.47;29.03;;;8.70;99.20;;;;;;6279852;28;20490;-67
2021/10/28 20:51:59;;;;;;;30.50;27.27;;;8.70;99.40;;;;;;6274133;28;20466;-66
2021/10/28 20:55:02;;;;;;;32.77;29.17;;;8.60;99.40;;;;;;6274462;28;20477;-66
2021/10/28 20:58:07;;;;;;;32.73;29.20;;;8.60;99.60;;;;;;6274040;28;20493;-69
2021/10/28 21:01:10;;;;;;;33.90;29.87;;;8.50;99.70;;;;;;6274175;28;20480;-68
2021/10/28 21:04:14;;;;;;;38.03;29.10;;;8.50;99.90;;;;;;6265342;28;20572;-67
2021/10/28 21:07:18;;;;;;;36.00;30.20;;;8.40;99.90;;;;;;6273626;28;20473;-70
2021/10/28 21:10:24;;;;;;;37.07;29.70;;;8.40;99.90;;;;;;6272232;28;20499;-69
2021/10/28 21:13:29;;;;;;;35.70;31.07;;;8.40;99.90;;;;;;6249190;28;20794;-68
2021/10/28 21:16:33;;;;;;;34.77;31.10;;;8.30;99.90;;;;;;6250711;28;20482;-68
2021/10/28 21:19:36;;;;;;;38.00;30.30;;;8.30;99.90;;;;;;6254198;28;20854;-68
2021/10/28 21:22:40;;;;;;;36.23;31.43;;;8.20;99.90;;;;;;6254448;28;20489;-68
2021/10/28 21:25:47;;;;;;;33.03;29.33;;;8.10;99.90;;;;;;6254507;28;20473;-66
2021/10/28 21:28:51;;;;;;;38.33;30.67;;;8.20;99.90;;;;;;6254398;28;20844;-66
2021/10/28 21:31:55;;;;;;;36.37;32.20;;;8.20;99.90;;;;;;6253918;28;20467;-66
2021/10/28 21:34:58;;;;;;;35.70;31.73;;;8.20;99.90;;;;;;6253473;28;20475;-66
2021/10/28 21:38:01;;;;;;;37.20;31.97;;;8.20;99.90;;;;;;6265664;28;20466;-66
2021/10/28 21:41:05;;;;;;;40.80;32.60;;;8.10;99.90;;;;;;6262228;28;20455;-66
2021/10/28 21:44:10;;;;;;;36.83;31.90;;;8.10;99.90;;;;;;6267577;28;20480;-66
2021/10/28 21:47:16;;;;;;;41.03;34.90;;;8.10;99.90;;;;;;6298283;28;20445;-66
2021/10/28 21:50:21;;;;;;;35.80;31.47;;;8.00;99.90;;;;;;6278234;28;20935;-66
2021/10/28 21:53:24;;;;;;;39.60;32.00;;;7.90;99.90;;;;;;6278084;28;20465;-66
2021/10/28 21:56:32;;;;;;;40.20;34.00;;;7.90;99.90;;;;;;6278408;28;20785;-66
2021/10/28 22:06:43;;;;;;;39.47;34.23;;;7.90;99.90;;;;;;6277257;28;20478;-67
2021/10/28 22:26:42;;;;;;;43.17;35.37;;;7.70;99.90;;;;;;6252054;28;20508;-67
2021/10/28 22:29:46;;;;;;;40.90;33.87;;;7.70;99.90;;;;;;6251823;28;20985;-68
2021/10/28 22:33:04;;;;;;;43.73;35.23;;;7.60;99.90;;;;;;6251865;28;20468;-68
2021/10/28 22:36:12;;;;;;;43.50;34.00;;;7.60;99.90;;;;;;6252065;28;20479;-68
2021/10/28 22:39:18;;;;;;;45.10;36.37;;;7.60;99.90;;;;;;6273106;28;20966;-68
2021/10/28 22:42:23;;;;;;;43.77;35.53;;;7.50;99.90;;;;;;6252075;28;20482;-68
2021/10/28 22:45:30;;;;;;;45.00;35.67;;;7.50;99.90;;;;;;6287630;28;20488;-68
2021/10/28 22:48:35;;;;;;;44.43;34.93;;;7.40;99.90;;;;;;6285301;28;20985;-68
2021/10/28 22:51:39;;;;;;;40.07;32.60;;;7.40;99.90;;;;;;6275438;28;20561;-67
2021/10/28 22:54:43;;;;;;;40.10;33.40;;;7.40;99.90;;;;;;6276502;28;20484;-67
2021/10/28 22:57:50;;;;;;;45.50;38.70;;;7.40;99.90;;;;;;6276265;28;20477;-67
2021/10/28 23:01:07;;;;;;;54.63;42.07;;;7.40;99.90;;;;;;6276226;28;20485;-67
2021/10/28 23:04:30;;;;;;;51.60;43.00;;;7.30;99.90;;;;;;6275638;28;20462;-67
2021/10/28 23:20:52;;;;;;;48.33;42.33;;;7.20;99.90;;;;;;6250883;28;20475;-69
2021/10/28 23:23:56;;;;;;;47.33;39.50;;;7.20;99.90;;;;;;6249888;28;20474;-67
2021/10/28 23:26:59;;;;;;;44.10;39.30;;;7.20;99.90;;;;;;6249329;28;20470;-67
2021/10/28 23:30:03;;;;;;;47.30;37.53;;;7.20;99.90;;;;;;6249145;28;20857;-68
2021/10/28 23:33:08;;;;;;;45.93;37.80;;;7.20;99.90;;;;;;6248656;28;20788;-68
2021/10/28 23:36:13;;;;;;;47.77;40.10;;;7.20;99.90;;;;;;6249368;28;20796;-67
2021/10/28 23:39:16;;;;;;;44.70;38.47;;;7.20;99.90;;;;;;6271655;28;20496;-66
2021/10/28 23:42:19;;;;;;;47.10;38.83;;;7.10;99.90;;;;;;6250336;28;20482;-66
2021/10/28 23:45:25;;;;;;;44.80;39.57;;;7.10;99.90;;;;;;6284519;28;20832;-66
2021/10/28 23:48:29;;;;;;;47.07;38.40;;;7.10;99.90;;;;;;6299835;28;20494;-66
2021/10/28 23:51:34;;;;;;;45.90;39.47;;;7.00;99.90;;;;;;6299816;28;20484;-66
2021/10/28 23:54:38;;;;;;;45.03;39.40;;;7.00;99.90;;;;;;6299728;28;20472;-66
2021/10/28 23:57:41;;;;;;;47.77;38.97;;;7.00;99.90;;;;;;6299915;28;20473;-67
